Star Flyer — 9HA2512 — position and weather

sailwx.info

Track history (hours):
 
Tides and Currents Weather Stations Pressure Air Temp Water Temp Dewpoint Dewpoint Depression Visibility Wind Speed Wind Dir Waves Ship Positions

Star Flyer

Last reported at 2019-Sep-21 16:55 UTC. Time now 2019-Sep-21 17:22 UTC.
Position N 45°26' E 012°19'.

Length 112 m; draft 5.8 m.

Type: Ship. MMSI: 248785000.

Date/timePositionNaut miles runAvg speedWind from/ knotsBaromVisibWave heightAir tempDewpointWater temp
2019-Sep-21 16:55N 45°26' E 012°19'0 0.0
2019-Sep-21 16:30N 45°26' E 012°19'0 0.0
2019-Sep-21 15:57N 45°26' E 012°19'0 0.0
2019-Sep-21 15:31N 45°26' E 012°19'0 0.0
2019-Sep-21 14:55N 45°26' E 012°19'0 0.0
2019-Sep-21 14:30N 45°26' E 012°19'0 0.0
2019-Sep-21 14:00N 45°26' E 012°19'0 0.0
2019-Sep-21 13:30N 45°26' E 012°19'0 0.0
2019-Sep-21 12:57N 45°26' E 012°19'0 0.0
2019-Sep-21 12:31N 45°26' E 012°19'0 0.0
2019-Sep-21 11:57N 45°26' E 012°19'0 0.0
2019-Sep-21 11:30N 45°26' E 012°19'0 0.0
2019-Sep-21 11:00N 45°26' E 012°19'0 0.0
2019-Sep-21 10:28N 45°26' E 012°19'0 0.0
2019-Sep-21 09:55N 45°26' E 012°19'0 0.0
2019-Sep-21 09:28N 45°26' E 012°19'0 0.0
2019-Sep-21 08:58N 45°26' E 012°19'0 0.0
2019-Sep-21 08:30N 45°26' E 012°19'0 0.0
2019-Sep-21 07:58N 45°26' E 012°19'0 0.0
2019-Sep-21 07:28N 45°26' E 012°19'0 0.0
2019-Sep-21 06:57N 45°26' E 012°19'0 0.0
2019-Sep-21 06:27N 45°26' E 012°19'0 0.0
2019-Sep-21 06:00N 45°26' E 012°19'0 0.0
2019-Sep-21 05:30N 45°26' E 012°19'0 0.0
2019-Sep-21 05:00N 45°26' E 012°19'0 0.0
2019-Sep-21 04:30N 45°26' E 012°19'0 0.0
2019-Sep-21 04:01N 45°26' E 012°19'0 0.0
2019-Sep-21 03:30N 45°26' E 012°19'0 0.0
2019-Sep-21 03:00N 45°26' E 012°19'1 1.8
2019-Sep-21 02:30N 45°26' E 012°20'2 4.6
2019-Sep-21 02:01N 45°26' E 012°23'4 8.1
2019-Sep-21 01:31N 45°24' E 012°29'3 6.1
2019-Sep-21 01:01N 45°22' E 012°32'3 5.7
2019-Sep-21 00:31N 45°20' E 012°35'3 5.9
2019-Sep-21 00:01N 45°18' E 012°38'3 6.0
2019-Sep-20 23:30N 45°16' E 012°41'3 5.9
2019-Sep-20 23:00N 45°14' E 012°44'3 6.0
2019-Sep-20 22:31N 45°13' E 012°48'3 5.7
2019-Sep-20 21:59N 45°11' E 012°51'2 5.2
2019-Sep-20 21:30N 45°09' E 012°54'3 5.1
2019-Sep-20 21:01N 45°08' E 012°57'3 5.1
2019-Sep-20 20:31N 45°07' E 013°00'2 4.6
2019-Sep-20 20:00N 45°06' E 013°03'2 4.6
2019-Sep-20 19:28N 45°06' E 013°07'2 4.4
2019-Sep-20 19:01N 45°05' E 013°09'2 4.6
2019-Sep-20 18:30N 45°04' E 013°12'2 4.5
2019-Sep-20 18:00N 45°03' E 013°15'2 4.5
2019-Sep-20 17:30N 45°03' E 013°18'2 4.5
2019-Sep-20 17:00N 45°03' E 013°22'2 4.4
2019-Sep-20 16:31N 45°03' E 013°25'2 4.3
2019-Sep-20 16:01N 45°03' E 013°28'2 4.4
2019-Sep-20 15:30N 45°03' E 013°31'2 4.4
2019-Sep-20 15:00N 45°04' E 013°34'2 4.7
2019-Sep-20 14:31N 45°05' E 013°37'1 2.1
2019-Sep-20 14:00N 45°05' E 013°38'0 0.0
2019-Sep-20 13:30N 45°05' E 013°38'0 0.0
2019-Sep-20 12:59N 45°05' E 013°38'0 0.0
2019-Sep-20 12:29N 45°05' E 013°38'0 0.0
2019-Sep-20 11:57N 45°05' E 013°38'0 0.0
2019-Sep-20 11:27N 45°05' E 013°38'0 0.1
2019-Sep-20 10:54N 45°05' E 013°38'0 0.1
2019-Sep-20 10:30N 45°05' E 013°38'0 0.0
2019-Sep-20 09:59N 45°05' E 013°38'0 0.0
2019-Sep-20 09:29N 45°05' E 013°38'0 0.1
2019-Sep-20 08:59N 45°05' E 013°38'0 0.0
2019-Sep-20 08:30N 45°05' E 013°38'0 0.0
2019-Sep-20 07:59N 45°05' E 013°38'0 0.0
2019-Sep-20 07:30N 45°05' E 013°38'0 0.0
2019-Sep-20 06:47N 45°05' E 013°38'0 0.0
2019-Sep-20 06:30N 45°05' E 013°38'0 0.7
2019-Sep-20 06:00N 45°05' E 013°38'2 4.6
2019-Sep-20 05:30N 45°04' E 013°35'4 8.3
2019-Sep-20 05:00N 44°60' E 013°37'4 8.5
2019-Sep-20 04:30N 44°56' E 013°38'4 8.6
2019-Sep-20 04:00N 44°52' E 013°42'4 8.0
2019-Sep-20 03:30N 44°49' E 013°46'4 8.6
2019-Sep-20 03:00N 44°46' E 013°49'4 8.5
2019-Sep-20 02:30N 44°43' E 013°53'5 8.6
2019-Sep-20 01:57N 44°39' E 013°58'4 8.7
2019-Sep-20 01:30N 44°37' E 014°02'5 8.6
2019-Sep-20 00:53N 44°33' E 014°08'  
2019-Sep-15 08:56N 43°58' E 014°17'23 7.9
2019-Sep-15 06:02N 44°15' E 013°56'3 8.1
2019-Sep-15 05:38N 44°17' E 013°54'11 8.2
2019-Sep-15 04:19N 44°26' E 013°45'4 8.5
2019-Sep-15 03:53N 44°29' E 013°42'9 8.9
2019-Sep-15 02:55N 44°37' E 013°35'4 8.6
2019-Sep-15 02:28N 44°40' E 013°32'4 8.3
2019-Sep-15 02:00N 44°43' E 013°29'4 8.6
2019-Sep-15 01:30N 44°46' E 013°26'4 8.5
2019-Sep-15 01:00N 44°50' E 013°23'4 8.4
2019-Sep-15 00:30N 44°53' E 013°19'4 7.9
2019-Sep-15 00:00N 44°55' E 013°14'4 8.3
2019-Sep-14 23:30N 44°56' E 013°08'4 8.4
2019-Sep-14 23:00N 44°56' E 013°02'4 8.3
2019-Sep-14 22:30N 44°56' E 012°57'5 8.4
2019-Sep-14 21:58N 44°57' E 012°50'5 8.3
2019-Sep-14 21:21N 45°01' E 012°47'3 8.5
2019-Sep-14 21:00N 45°04' E 012°45'12 8.4
2019-Sep-14 19:33N 45°11' E 012°31'3 8.5
2019-Sep-14 19:10N 45°15' E 012°31'2 8.6
2019-Sep-14 19:00N 45°16' E 012°30'4 8.9
2019-Sep-14 18:30N 45°20' E 012°30'5 8.2
2019-Sep-14 17:54N 45°25' E 012°27'3 7.7
2019-Sep-14 17:30N 45°26' E 012°23'2 4.3
2019-Sep-14 17:01N 45°26' E 012°20'1 1.6
2019-Sep-14 16:28N 45°26' E 012°19'0 0.0
2019-Sep-14 15:57N 45°26' E 012°19'0 0.0
2019-Sep-14 15:28N 45°26' E 012°19'0 0.0
2019-Sep-14 14:58N 45°26' E 012°19'0 0.0
2019-Sep-14 14:28N 45°26' E 012°19'0 0.0
2019-Sep-14 13:58N 45°26' E 012°19'0 0.0
2019-Sep-14 13:28N 45°26' E 012°19'0 0.0
2019-Sep-14 12:58N 45°26' E 012°19'0 0.0
2019-Sep-14 12:29N 45°26' E 012°19'0 0.0
2019-Sep-14 11:59N 45°26' E 012°19'0 0.0
2019-Sep-14 11:29N 45°26' E 012°19'0 0.0
2019-Sep-14 10:59N 45°26' E 012°19'0 0.0
2019-Sep-14 10:29N 45°26' E 012°19'0 0.0
2019-Sep-14 09:59N 45°26' E 012°19'0 0.0
2019-Sep-14 09:29N 45°26' E 012°19'0 0.0
2019-Sep-14 08:59N 45°26' E 012°19'0 0.0
2019-Sep-14 08:29N 45°26' E 012°19'0 0.0
2019-Sep-14 07:59N 45°26' E 012°19'0 0.0
2019-Sep-14 07:29N 45°26' E 012°19'0 0.0
2019-Sep-14 06:59N 45°26' E 012°19'0 0.0
2019-Sep-14 06:29N 45°26' E 012°19'0 0.0
2019-Sep-14 05:57N 45°26' E 012°19'0 0.0
2019-Sep-14 05:29N 45°26' E 012°19'0 0.0
2019-Sep-14 05:00N 45°26' E 012°19'0 0.0
2019-Sep-14 04:30N 45°26' E 012°19'0 0.0
2019-Sep-14 04:00N 45°26' E 012°19'0 0.0
2019-Sep-14 03:30N 45°26' E 012°19'0 0.7
2019-Sep-14 03:00N 45°26' E 012°19'2 4.5
2019-Sep-14 02:30N 45°26' E 012°23'3 5.7
2019-Sep-14 02:00N 45°25' E 012°27'4 7.0
2019-Sep-14 01:29N 45°23' E 012°31'3 5.4
2019-Sep-14 01:00N 45°22' E 012°35'4 6.0
2019-Sep-14 00:22N 45°23' E 012°40'3 6.6
2019-Sep-13 23:58N 45°24' E 012°43'4 6.6
2019-Sep-13 23:26N 45°26' E 012°48'3 6.6
2019-Sep-13 23:00N 45°27' E 012°52'3 6.5
2019-Sep-13 22:30N 45°28' E 012°56'3 6.4
2019-Sep-13 22:00N 45°29' E 013°00'2 4.9
2019-Sep-13 21:30N 45°30' E 013°03'2 4.9
2019-Sep-13 21:00N 45°31' E 013°07'2 4.3
2019-Sep-13 20:30N 45°32' E 013°09'3 6.5
2019-Sep-13 20:00N 45°33' E 013°14'3 6.3
2019-Sep-13 19:30N 45°34' E 013°18'3 6.2
2019-Sep-13 19:00N 45°35' E 013°22'3 6.6
2019-Sep-13 18:30N 45°36' E 013°26'3 6.5
2019-Sep-13 18:00N 45°37' E 013°31'2 4.7
2019-Sep-13 17:30N 45°35' E 013°33'3 6.7
2019-Sep-13 17:00N 45°32' E 013°33'1 0.5
2019-Sep-13 15:21N 45°31' E 013°33'0 0.0
2019-Sep-13 14:20N 45°31' E 013°33'0 0.0
2019-Sep-13 13:57N 45°31' E 013°33'0 0.0
2019-Sep-13 13:23N 45°31' E 013°33'0 0.0
2019-Sep-13 12:38N 45°31' E 013°33'0 0.0
2019-Sep-13 12:27N 45°31' E 013°33'0 0.0
2019-Sep-13 11:57N 45°31' E 013°33'0 0.0
2019-Sep-13 11:18N 45°31' E 013°33'0 0.0
2019-Sep-13 10:57N 45°31' E 013°33'0 0.0
2019-Sep-13 10:30N 45°31' E 013°33'0 0.0
2019-Sep-13 10:00N 45°31' E 013°33'0 0.0
2019-Sep-13 09:24N 45°31' E 013°33'0 0.0
2019-Sep-13 08:51N 45°31' E 013°33'0 0.0
2019-Sep-13 08:23N 45°31' E 013°33'0 0.0
2019-Sep-13 07:54N 45°31' E 013°33'0 0.1
2019-Sep-13 07:26N 45°31' E 013°33'2 4.4
2019-Sep-13 07:00N 45°31' E 013°31'4 7.0
2019-Sep-13 06:30N 45°30' E 013°26'4 7.7
2019-Sep-13 06:00N 45°27' E 013°22'4 7.1
2019-Sep-13 05:30N 45°23' E 013°22'4 7.5
2019-Sep-13 05:00N 45°20' E 013°22'4 7.5
2019-Sep-13 04:30N 45°16' E 013°21'4 7.5
2019-Sep-13 04:00N 45°12' E 013°21'2 4.2
2019-Sep-13 03:30N 45°10' E 013°21'1 2.7
2019-Sep-13 03:00N 45°09' E 013°23'1 2.0
2019-Sep-13 02:30N 45°09' E 013°24'1 1.4
2019-Sep-13 01:30N 45°08' E 013°25'1 1.2
2019-Sep-13 01:00N 45°08' E 013°26'0 0.7
2019-Sep-13 00:30N 45°08' E 013°27'0 0.4
2019-Sep-13 00:00N 45°08' E 013°27'0 0.7
2019-Sep-12 23:30N 45°09' E 013°27'1 1.0
2019-Sep-12 23:00N 45°09' E 013°28'0 0.7
2019-Sep-12 22:30N 45°09' E 013°28'0 0.7
2019-Sep-12 22:00N 45°09' E 013°29'0 0.2
2019-Sep-12 21:30N 45°09' E 013°29'0 0.3
2019-Sep-12 21:00N 45°09' E 013°29'0 0.0
2019-Sep-12 20:30N 45°09' E 013°29'0 0.3
2019-Sep-12 20:00N 45°09' E 013°29'1 1.3
2019-Sep-12 19:30N 45°08' E 013°29'1 1.8
2019-Sep-12 19:00N 45°08' E 013°30'1 2.7
2019-Sep-12 18:30N 45°06' E 013°31'1 2.4
2019-Sep-12 18:00N 45°05' E 013°32'1 1.8
2019-Sep-12 17:30N 45°05' E 013°33'1 1.6
2019-Sep-12 17:00N 45°05' E 013°34'1 1.5
2019-Sep-12 16:30N 45°05' E 013°35'2 3.4
2019-Sep-12 16:00N 45°05' E 013°38'0 0.3
2019-Sep-12 15:19N 45°05' E 013°38'0 0.0
2019-Sep-12 14:58N 45°05' E 013°38'0 0.0
2019-Sep-12 14:25N 45°05' E 013°38'0 0.0
2019-Sep-12 13:58N 45°05' E 013°38'0 0.0
2019-Sep-12 13:25N 45°05' E 013°38'0 0.1
2019-Sep-12 13:00N 45°05' E 013°38'0 0.0
2019-Sep-12 12:16N 45°05' E 013°38'0 0.0
2019-Sep-12 11:55N 45°05' E 013°38'0 0.0
2019-Sep-12 11:28N 45°05' E 013°38'0 0.0
2019-Sep-12 10:52N 45°05' E 013°38'0 0.0
2019-Sep-12 10:28N 45°05' E 013°38'0 0.0
2019-Sep-12 09:55N 45°05' E 013°38'0 0.6
2019-Sep-12 09:30N 45°05' E 013°38'4 7.5
2019-Sep-12 09:00N 45°05' E 013°33'3 7.0
2019-Sep-12 08:30N 45°05' E 013°28'3 6.7
2019-Sep-12 08:00N 45°06' E 013°23'4 7.1
2019-Sep-12 07:30N 45°05' E 013°18'4 7.5
2019-Sep-12 07:00N 45°06' E 013°12'4 7.9
2019-Sep-12 06:30N 45°06' E 013°07'3 5.3
2019-Sep-12 06:00N 45°06' E 013°03'1 2.3
2019-Sep-12 05:30N 45°07' E 013°02'1 2.3
2019-Sep-12 05:00N 45°07' E 013°00'2 2.8
2019-Sep-12 04:28N 45°08' E 012°58'1 3.3
2019-Sep-12 04:00N 45°09' E 012°57'2 4.0
2019-Sep-12 03:30N 45°11' E 012°57'2 4.2
2019-Sep-12 03:00N 45°13' E 012°57'2 3.8
2019-Sep-12 02:30N 45°15' E 012°56'2 3.7
2019-Sep-12 02:00N 45°17' E 012°56'3 3.0
2019-Sep-12 00:53N 45°18' E 012°51'1 2.8
2019-Sep-12 00:30N 45°19' E 012°50'2 3.1
2019-Sep-12 00:00N 45°19' E 012°48'2 3.0
2019-Sep-11 23:29N 45°20' E 012°46'1 2.6
2019-Sep-11 23:00N 45°21' E 012°44'1 2.1
2019-Sep-11 22:30N 45°21' E 012°43'1 1.9
2019-Sep-11 21:59N 45°22' E 012°42'1 1.2
2019-Sep-11 21:29N 45°22' E 012°41'1 2.1
2019-Sep-11 21:00N 45°23' E 012°40'3 3.8
2019-Sep-11 20:14N 45°22' E 012°36'1 4.3
2019-Sep-11 19:59N 45°22' E 012°34'6 4.1
2019-Sep-11 18:32N 45°25' E 012°27'0 8.4
2019-Sep-11 18:29N 45°25' E 012°26'2 5.2
2019-Sep-11 18:00N 45°26' E 012°23'2 4.2
2019-Sep-11 17:30N 45°26' E 012°20'1 1.2
2019-Sep-11 16:59N 45°26' E 012°19'  
Track history (hours):
 
Tides and Currents Weather Stations Pressure Air Temp Water Temp Dewpoint Dewpoint Depression Visibility Wind Speed Wind Dir Waves Ship Positions

Star Flyer

Last reported at 2019-Sep-21 16:55 UTC. Time now 2019-Sep-21 17:22 UTC.
Position N 45°26' E 012°19'.

Length 112 m; draft 5.8 m.

Type: Ship. MMSI: 248785000.

Date/timePositionNaut miles runAvg speedWind from/ knotsBaromVisibWave heightAir tempDewpointWater temp
2019-Sep-21 16:55N 45°26' E 012°19'0 0.0
2019-Sep-21 16:30N 45°26' E 012°19'0 0.0
2019-Sep-21 15:57N 45°26' E 012°19'0 0.0
2019-Sep-21 15:31N 45°26' E 012°19'0 0.0
2019-Sep-21 14:55N 45°26' E 012°19'0 0.0
2019-Sep-21 14:30N 45°26' E 012°19'0 0.0
2019-Sep-21 14:00N 45°26' E 012°19'0 0.0
2019-Sep-21 13:30N 45°26' E 012°19'0 0.0
2019-Sep-21 12:57N 45°26' E 012°19'0 0.0
2019-Sep-21 12:31N 45°26' E 012°19'0 0.0
2019-Sep-21 11:57N 45°26' E 012°19'0 0.0
2019-Sep-21 11:30N 45°26' E 012°19'0 0.0
2019-Sep-21 11:00N 45°26' E 012°19'0 0.0
2019-Sep-21 10:28N 45°26' E 012°19'0 0.0
2019-Sep-21 09:55N 45°26' E 012°19'0 0.0
2019-Sep-21 09:28N 45°26' E 012°19'0 0.0
2019-Sep-21 08:58N 45°26' E 012°19'0 0.0
2019-Sep-21 08:30N 45°26' E 012°19'0 0.0
2019-Sep-21 07:58N 45°26' E 012°19'0 0.0
2019-Sep-21 07:28N 45°26' E 012°19'0 0.0
2019-Sep-21 06:57N 45°26' E 012°19'0 0.0
2019-Sep-21 06:27N 45°26' E 012°19'0 0.0
2019-Sep-21 06:00N 45°26' E 012°19'0 0.0
2019-Sep-21 05:30N 45°26' E 012°19'0 0.0
2019-Sep-21 05:00N 45°26' E 012°19'0 0.0
2019-Sep-21 04:30N 45°26' E 012°19'0 0.0
2019-Sep-21 04:01N 45°26' E 012°19'0 0.0
2019-Sep-21 03:30N 45°26' E 012°19'0 0.0
2019-Sep-21 03:00N 45°26' E 012°19'1 1.8
2019-Sep-21 02:30N 45°26' E 012°20'2 4.6
2019-Sep-21 02:01N 45°26' E 012°23'4 8.1
2019-Sep-21 01:31N 45°24' E 012°29'3 6.1
2019-Sep-21 01:01N 45°22' E 012°32'3 5.7
2019-Sep-21 00:31N 45°20' E 012°35'3 5.9
2019-Sep-21 00:01N 45°18' E 012°38'3 6.0
2019-Sep-20 23:30N 45°16' E 012°41'3 5.9
2019-Sep-20 23:00N 45°14' E 012°44'3 6.0
2019-Sep-20 22:31N 45°13' E 012°48'3 5.7
2019-Sep-20 21:59N 45°11' E 012°51'2 5.2
2019-Sep-20 21:30N 45°09' E 012°54'3 5.1
2019-Sep-20 21:01N 45°08' E 012°57'3 5.1
2019-Sep-20 20:31N 45°07' E 013°00'2 4.6
2019-Sep-20 20:00N 45°06' E 013°03'2 4.6
2019-Sep-20 19:28N 45°06' E 013°07'2 4.4
2019-Sep-20 19:01N 45°05' E 013°09'2 4.6
2019-Sep-20 18:30N 45°04' E 013°12'2 4.5
2019-Sep-20 18:00N 45°03' E 013°15'2 4.5
2019-Sep-20 17:30N 45°03' E 013°18'2 4.5
2019-Sep-20 17:00N 45°03' E 013°22'2 4.4
2019-Sep-20 16:31N 45°03' E 013°25'2 4.3
2019-Sep-20 16:01N 45°03' E 013°28'2 4.4
2019-Sep-20 15:30N 45°03' E 013°31'2 4.4
2019-Sep-20 15:00N 45°04' E 013°34'2 4.7
2019-Sep-20 14:31N 45°05' E 013°37'1 2.1
2019-Sep-20 14:00N 45°05' E 013°38'0 0.0
2019-Sep-20 13:30N 45°05' E 013°38'0 0.0
2019-Sep-20 12:59N 45°05' E 013°38'0 0.0
2019-Sep-20 12:29N 45°05' E 013°38'0 0.0
2019-Sep-20 11:57N 45°05' E 013°38'0 0.0
2019-Sep-20 11:27N 45°05' E 013°38'0 0.1
2019-Sep-20 10:54N 45°05' E 013°38'0 0.1
2019-Sep-20 10:30N 45°05' E 013°38'0 0.0
2019-Sep-20 09:59N 45°05' E 013°38'0 0.0
2019-Sep-20 09:29N 45°05' E 013°38'0 0.1
2019-Sep-20 08:59N 45°05' E 013°38'0 0.0
2019-Sep-20 08:30N 45°05' E 013°38'0 0.0
2019-Sep-20 07:59N 45°05' E 013°38'0 0.0
2019-Sep-20 07:30N 45°05' E 013°38'0 0.0
2019-Sep-20 06:47N 45°05' E 013°38'0 0.0
2019-Sep-20 06:30N 45°05' E 013°38'0 0.7
2019-Sep-20 06:00N 45°05' E 013°38'2 4.6
2019-Sep-20 05:30N 45°04' E 013°35'4 8.3
2019-Sep-20 05:00N 44°60' E 013°37'4 8.5
2019-Sep-20 04:30N 44°56' E 013°38'4 8.6
2019-Sep-20 04:00N 44°52' E 013°42'4 8.0
2019-Sep-20 03:30N 44°49' E 013°46'4 8.6
2019-Sep-20 03:00N 44°46' E 013°49'4 8.5
2019-Sep-20 02:30N 44°43' E 013°53'5 8.6
2019-Sep-20 01:57N 44°39' E 013°58'4 8.7
2019-Sep-20 01:30N 44°37' E 014°02'5 8.6
2019-Sep-20 00:53N 44°33' E 014°08'  
2019-Sep-15 08:56N 43°58' E 014°17'23 7.9
2019-Sep-15 06:02N 44°15' E 013°56'3 8.1
2019-Sep-15 05:38N 44°17' E 013°54'11 8.2
2019-Sep-15 04:19N 44°26' E 013°45'4 8.5
2019-Sep-15 03:53N 44°29' E 013°42'9 8.9
2019-Sep-15 02:55N 44°37' E 013°35'4 8.6
2019-Sep-15 02:28N 44°40' E 013°32'4 8.3
2019-Sep-15 02:00N 44°43' E 013°29'4 8.6
2019-Sep-15 01:30N 44°46' E 013°26'4 8.5
2019-Sep-15 01:00N 44°50' E 013°23'4 8.4
2019-Sep-15 00:30N 44°53' E 013°19'4 7.9
2019-Sep-15 00:00N 44°55' E 013°14'4 8.3
2019-Sep-14 23:30N 44°56' E 013°08'4 8.4
2019-Sep-14 23:00N 44°56' E 013°02'4 8.3
2019-Sep-14 22:30N 44°56' E 012°57'5 8.4
2019-Sep-14 21:58N 44°57' E 012°50'5 8.3
2019-Sep-14 21:21N 45°01' E 012°47'3 8.5
2019-Sep-14 21:00N 45°04' E 012°45'12 8.4
2019-Sep-14 19:33N 45°11' E 012°31'3 8.5
2019-Sep-14 19:10N 45°15' E 012°31'2 8.6
2019-Sep-14 19:00N 45°16' E 012°30'4 8.9
2019-Sep-14 18:30N 45°20' E 012°30'5 8.2
2019-Sep-14 17:54N 45°25' E 012°27'3 7.7
2019-Sep-14 17:30N 45°26' E 012°23'2 4.3
2019-Sep-14 17:01N 45°26' E 012°20'1 1.6
2019-Sep-14 16:28N 45°26' E 012°19'0 0.0
2019-Sep-14 15:57N 45°26' E 012°19'0 0.0
2019-Sep-14 15:28N 45°26' E 012°19'0 0.0
2019-Sep-14 14:58N 45°26' E 012°19'0 0.0
2019-Sep-14 14:28N 45°26' E 012°19'0 0.0
2019-Sep-14 13:58N 45°26' E 012°19'0 0.0
2019-Sep-14 13:28N 45°26' E 012°19'0 0.0
2019-Sep-14 12:58N 45°26' E 012°19'0 0.0
2019-Sep-14 12:29N 45°26' E 012°19'0 0.0
2019-Sep-14 11:59N 45°26' E 012°19'0 0.0
2019-Sep-14 11:29N 45°26' E 012°19'0 0.0
2019-Sep-14 10:59N 45°26' E 012°19'0 0.0
2019-Sep-14 10:29N 45°26' E 012°19'0 0.0
2019-Sep-14 09:59N 45°26' E 012°19'0 0.0
2019-Sep-14 09:29N 45°26' E 012°19'0 0.0
2019-Sep-14 08:59N 45°26' E 012°19'0 0.0
2019-Sep-14 08:29N 45°26' E 012°19'0 0.0
2019-Sep-14 07:59N 45°26' E 012°19'0 0.0
2019-Sep-14 07:29N 45°26' E 012°19'0 0.0
2019-Sep-14 06:59N 45°26' E 012°19'0 0.0
2019-Sep-14 06:29N 45°26' E 012°19'0 0.0
2019-Sep-14 05:57N 45°26' E 012°19'0 0.0
2019-Sep-14 05:29N 45°26' E 012°19'0 0.0
2019-Sep-14 05:00N 45°26' E 012°19'0 0.0
2019-Sep-14 04:30N 45°26' E 012°19'0 0.0
2019-Sep-14 04:00N 45°26' E 012°19'0 0.0
2019-Sep-14 03:30N 45°26' E 012°19'0 0.7
2019-Sep-14 03:00N 45°26' E 012°19'2 4.5
2019-Sep-14 02:30N 45°26' E 012°23'3 5.7
2019-Sep-14 02:00N 45°25' E 012°27'4 7.0
2019-Sep-14 01:29N 45°23' E 012°31'3 5.4
2019-Sep-14 01:00N 45°22' E 012°35'4 6.0
2019-Sep-14 00:22N 45°23' E 012°40'3 6.6
2019-Sep-13 23:58N 45°24' E 012°43'4 6.6
2019-Sep-13 23:26N 45°26' E 012°48'3 6.6
2019-Sep-13 23:00N 45°27' E 012°52'3 6.5
2019-Sep-13 22:30N 45°28' E 012°56'3 6.4
2019-Sep-13 22:00N 45°29' E 013°00'2 4.9
2019-Sep-13 21:30N 45°30' E 013°03'2 4.9
2019-Sep-13 21:00N 45°31' E 013°07'2 4.3
2019-Sep-13 20:30N 45°32' E 013°09'3 6.5
2019-Sep-13 20:00N 45°33' E 013°14'3 6.3
2019-Sep-13 19:30N 45°34' E 013°18'3 6.2
2019-Sep-13 19:00N 45°35' E 013°22'3 6.6
2019-Sep-13 18:30N 45°36' E 013°26'3 6.5
2019-Sep-13 18:00N 45°37' E 013°31'2 4.7
2019-Sep-13 17:30N 45°35' E 013°33'3 6.7
2019-Sep-13 17:00N 45°32' E 013°33'1 0.5
2019-Sep-13 15:21N 45°31' E 013°33'0 0.0
2019-Sep-13 14:20N 45°31' E 013°33'0 0.0
2019-Sep-13 13:57N 45°31' E 013°33'0 0.0
2019-Sep-13 13:23N 45°31' E 013°33'0 0.0
2019-Sep-13 12:38N 45°31' E 013°33'0 0.0
2019-Sep-13 12:27N 45°31' E 013°33'0 0.0
2019-Sep-13 11:57N 45°31' E 013°33'0 0.0
2019-Sep-13 11:18N 45°31' E 013°33'0 0.0
2019-Sep-13 10:57N 45°31' E 013°33'0 0.0
2019-Sep-13 10:30N 45°31' E 013°33'0 0.0
2019-Sep-13 10:00N 45°31' E 013°33'0 0.0
2019-Sep-13 09:24N 45°31' E 013°33'0 0.0
2019-Sep-13 08:51N 45°31' E 013°33'0 0.0
2019-Sep-13 08:23N 45°31' E 013°33'0 0.0
2019-Sep-13 07:54N 45°31' E 013°33'0 0.1
2019-Sep-13 07:26N 45°31' E 013°33'2 4.4
2019-Sep-13 07:00N 45°31' E 013°31'4 7.0
2019-Sep-13 06:30N 45°30' E 013°26'4 7.7
2019-Sep-13 06:00N 45°27' E 013°22'4 7.1
2019-Sep-13 05:30N 45°23' E 013°22'4 7.5
2019-Sep-13 05:00N 45°20' E 013°22'4 7.5
2019-Sep-13 04:30N 45°16' E 013°21'4 7.5
2019-Sep-13 04:00N 45°12' E 013°21'2 4.2
2019-Sep-13 03:30N 45°10' E 013°21'1 2.7
2019-Sep-13 03:00N 45°09' E 013°23'1 2.0
2019-Sep-13 02:30N 45°09' E 013°24'1 1.4
2019-Sep-13 01:30N 45°08' E 013°25'1 1.2
2019-Sep-13 01:00N 45°08' E 013°26'0 0.7
2019-Sep-13 00:30N 45°08' E 013°27'0 0.4
2019-Sep-13 00:00N 45°08' E 013°27'0 0.7
2019-Sep-12 23:30N 45°09' E 013°27'1 1.0
2019-Sep-12 23:00N 45°09' E 013°28'0 0.7
2019-Sep-12 22:30N 45°09' E 013°28'0 0.7
2019-Sep-12 22:00N 45°09' E 013°29'0 0.2
2019-Sep-12 21:30N 45°09' E 013°29'0 0.3
2019-Sep-12 21:00N 45°09' E 013°29'0 0.0
2019-Sep-12 20:30N 45°09' E 013°29'0 0.3
2019-Sep-12 20:00N 45°09' E 013°29'1 1.3
2019-Sep-12 19:30N 45°08' E 013°29'1 1.8
2019-Sep-12 19:00N 45°08' E 013°30'1 2.7
2019-Sep-12 18:30N 45°06' E 013°31'1 2.4
2019-Sep-12 18:00N 45°05' E 013°32'1 1.8
2019-Sep-12 17:30N 45°05' E 013°33'1 1.6
2019-Sep-12 17:00N 45°05' E 013°34'1 1.5
2019-Sep-12 16:30N 45°05' E 013°35'2 3.4
2019-Sep-12 16:00N 45°05' E 013°38'0 0.3
2019-Sep-12 15:19N 45°05' E 013°38'0 0.0
2019-Sep-12 14:58N 45°05' E 013°38'0 0.0
2019-Sep-12 14:25N 45°05' E 013°38'0 0.0
2019-Sep-12 13:58N 45°05' E 013°38'0 0.0
2019-Sep-12 13:25N 45°05' E 013°38'0 0.1
2019-Sep-12 13:00N 45°05' E 013°38'0 0.0
2019-Sep-12 12:16N 45°05' E 013°38'0 0.0
2019-Sep-12 11:55N 45°05' E 013°38'0 0.0
2019-Sep-12 11:28N 45°05' E 013°38'0 0.0
2019-Sep-12 10:52N 45°05' E 013°38'0 0.0
2019-Sep-12 10:28N 45°05' E 013°38'0 0.0
2019-Sep-12 09:55N 45°05' E 013°38'0 0.6
2019-Sep-12 09:30N 45°05' E 013°38'4 7.5
2019-Sep-12 09:00N 45°05' E 013°33'3 7.0
2019-Sep-12 08:30N 45°05' E 013°28'3 6.7
2019-Sep-12 08:00N 45°06' E 013°23'4 7.1
2019-Sep-12 07:30N 45°05' E 013°18'4 7.5
2019-Sep-12 07:00N 45°06' E 013°12'4 7.9
2019-Sep-12 06:30N 45°06' E 013°07'3 5.3
2019-Sep-12 06:00N 45°06' E 013°03'1 2.3
2019-Sep-12 05:30N 45°07' E 013°02'1 2.3
2019-Sep-12 05:00N 45°07' E 013°00'2 2.8
2019-Sep-12 04:28N 45°08' E 012°58'1 3.3
2019-Sep-12 04:00N 45°09' E 012°57'2 4.0
2019-Sep-12 03:30N 45°11' E 012°57'2 4.2
2019-Sep-12 03:00N 45°13' E 012°57'2 3.8
2019-Sep-12 02:30N 45°15' E 012°56'2 3.7
2019-Sep-12 02:00N 45°17' E 012°56'3 3.0
2019-Sep-12 00:53N 45°18' E 012°51'1 2.8
2019-Sep-12 00:30N 45°19' E 012°50'2 3.1
2019-Sep-12 00:00N 45°19' E 012°48'2 3.0
2019-Sep-11 23:29N 45°20' E 012°46'1 2.6
2019-Sep-11 23:00N 45°21' E 012°44'1 2.1
2019-Sep-11 22:30N 45°21' E 012°43'1 1.9
2019-Sep-11 21:59N 45°22' E 012°42'1 1.2
2019-Sep-11 21:29N 45°22' E 012°41'1 2.1
2019-Sep-11 21:00N 45°23' E 012°40'3 3.8
2019-Sep-11 20:14N 45°22' E 012°36'1 4.3
2019-Sep-11 19:59N 45°22' E 012°34'6 4.1
2019-Sep-11 18:32N 45°25' E 012°27'0 8.4
2019-Sep-11 18:29N 45°25' E 012°26'2 5.2
2019-Sep-11 18:00N 45°26' E 012°23'2 4.2
2019-Sep-11 17:30N 45°26' E 012°20'1 1.2
2019-Sep-11 16:59N 45°26' E 012°19'  

Dump ship's entire track history